Time;durP1;ratioP1;P1;durP2;ratioP2;P2;SDS_P1;SDS_P2;PMS_P1;PMS_P2;Temp;Humidity;BMP_temperature;BMP_pressure;BME280_temperature;BME280_humidity;BME280_pressure;Samples;Min_cycle;Max_cycle;Signal;HPM_P1;HPM_P2
2023/12/27 00:03:37;;;;;;;3.30;2.30;;;11.90;36.10;;;;;;10445498;28;20437;-76
2023/12/27 00:08:40;;;;;;;2.57;1.80;;;11.90;36.30;;;;;;10446783;28;20810;-76
2023/12/27 00:13:44;;;;;;;3.90;2.00;;;11.90;36.20;;;;;;10445131;28;20278;-76
2023/12/27 00:18:48;;;;;;;4.67;2.03;;;11.90;36.10;;;;;;10438687;28;20288;-76
2023/12/27 00:23:52;;;;;;;4.40;2.13;;;11.80;36.40;;;;;;10441291;28;20311;-76
2023/12/27 00:28:55;;;;;;;2.73;2.00;;;11.80;36.20;;;;;;10437062;28;20311;-76
2023/12/27 00:34:00;;;;;;;3.93;2.10;;;11.80;36.20;;;;;;10441011;28;20244;-76
2023/12/27 00:39:05;;;;;;;3.13;1.77;;;11.80;37.20;;;;;;10440249;28;20228;-76
2023/12/27 00:44:08;;;;;;;4.27;1.87;;;11.80;36.30;;;;;;10439584;28;20296;-76
2023/12/27 00:49:13;;;;;;;2.70;1.70;;;11.80;36.20;;;;;;10447324;28;20241;-77
2023/12/27 00:54:18;;;;;;;2.50;1.87;;;11.80;36.40;;;;;;10446883;28;20232;-76
2023/12/27 00:59:21;;;;;;;3.70;1.87;;;11.80;36.30;;;;;;10441959;28;20236;-76
2023/12/27 01:04:26;;;;;;;4.43;2.00;;;11.80;36.30;;;;;;10447028;28;20261;-76
2023/12/27 01:09:30;;;;;;;5.90;2.07;;;11.80;36.50;;;;;;10442718;28;20260;-76
2023/12/27 01:14:33;;;;;;;4.23;2.00;;;11.70;36.20;;;;;;10443943;28;20293;-76
2023/12/27 01:19:39;;;;;;;4.17;2.00;;;11.70;36.30;;;;;;10449041;28;20314;-76
2023/12/27 01:24:42;;;;;;;4.90;2.10;;;11.70;36.50;;;;;;10441279;28;20288;-76
2023/12/27 01:29:45;;;;;;;2.03;1.80;;;11.70;36.30;;;;;;10444311;28;20291;-76
2023/12/27 01:34:50;;;;;;;3.57;2.00;;;11.70;36.40;;;;;;10444708;28;20250;-76
2023/12/27 01:39:53;;;;;;;2.93;2.00;;;11.60;36.70;;;;;;10441147;28;20241;-76
2023/12/27 01:44:57;;;;;;;2.40;1.80;;;11.50;36.60;;;;;;10440387;28;20268;-76
2023/12/27 01:50:02;;;;;;;2.83;1.70;;;11.40;36.70;;;;;;10441836;28;20233;-75
2023/12/27 01:55:09;;;;;;;2.37;1.80;;;11.40;37.00;;;;;;10445510;28;20731;-75
2023/12/27 02:00:15;;;;;;;2.70;1.67;;;11.40;37.00;;;;;;10449672;28;20235;-75
2023/12/27 02:05:20;;;;;;;3.37;1.83;;;11.40;37.10;;;;;;10448653;28;20249;-75
2023/12/27 02:10:23;;;;;;;3.03;1.70;;;11.40;37.00;;;;;;10449763;28;20232;-75
2023/12/27 02:15:27;;;;;;;4.00;1.97;;;11.40;36.80;;;;;;10451399;28;20249;-75
2023/12/27 02:20:32;;;;;;;1.87;1.70;;;11.40;36.70;;;;;;10451739;28;20320;-75
2023/12/27 02:25:37;;;;;;;2.47;1.77;;;11.50;37.00;;;;;;10449934;28;20746;-75
2023/12/27 02:30:40;;;;;;;3.10;1.70;;;11.50;36.90;;;;;;10445096;28;20252;-75
2023/12/27 02:35:44;;;;;;;3.83;1.77;;;11.50;36.70;;;;;;10448966;28;20294;-75
2023/12/27 02:40:48;;;;;;;4.17;1.80;;;11.50;36.70;;;;;;10446987;28;20256;-75
2023/12/27 02:45:52;;;;;;;4.20;1.80;;;11.50;36.90;;;;;;10448959;28;20237;-75
2023/12/27 02:50:55;;;;;;;2.97;1.60;;;11.60;36.80;;;;;;10456126;28;21579;-75
2023/12/27 02:55:59;;;;;;;3.43;1.70;;;11.50;36.70;;;;;;10450206;28;20282;-75
2023/12/27 03:01:03;;;;;;;2.67;1.63;;;11.50;36.90;;;;;;10452994;28;20229;-75
2023/12/27 03:06:06;;;;;;;4.00;2.03;;;11.50;36.70;;;;;;10450224;28;20241;-75
2023/12/27 03:11:11;;;;;;;2.77;1.73;;;11.60;36.70;;;;;;10447344;28;20719;-75
2023/12/27 03:16:14;;;;;;;3.90;2.07;;;11.60;36.90;;;;;;10446859;28;20269;-75
2023/12/27 03:21:17;;;;;;;2.13;1.70;;;11.60;36.80;;;;;;10446892;28;20241;-75
2023/12/27 03:26:22;;;;;;;2.40;1.77;;;11.60;36.60;;;;;;10456362;28;20749;-75
2023/12/27 03:31:28;;;;;;;2.70;1.80;;;11.60;36.90;;;;;;10447083;28;20255;-75
2023/12/27 03:36:32;;;;;;;2.77;1.90;;;11.60;36.60;;;;;;10449959;28;20229;-75
2023/12/27 03:41:36;;;;;;;2.37;1.80;;;11.50;36.60;;;;;;10443071;28;20233;-75
2023/12/27 03:46:40;;;;;;;2.70;1.90;;;11.40;36.90;;;;;;10444276;28;20260;-75
2023/12/27 03:51:43;;;;;;;2.33;2.00;;;11.40;36.90;;;;;;10448138;28;20801;-75
2023/12/27 03:56:49;;;;;;;2.20;1.53;;;11.40;36.90;;;;;;10448800;28;20236;-75
2023/12/27 04:01:52;;;;;;;3.77;1.90;;;11.50;37.30;;;;;;10444910;28;20271;-75
2023/12/27 04:06:56;;;;;;;2.13;1.90;;;11.50;37.00;;;;;;10455202;28;20252;-75
2023/12/27 04:12:01;;;;;;;2.10;1.60;;;11.50;37.00;;;;;;10448315;28;20251;-75
2023/12/27 04:17:04;;;;;;;1.93;1.80;;;11.50;37.80;;;;;;10445170;28;20249;-76
2023/12/27 04:22:08;;;;;;;2.40;2.20;;;11.50;36.90;;;;;;10443722;28;20795;-75
2023/12/27 04:27:12;;;;;;;5.00;2.30;;;11.60;36.90;;;;;;10449458;28;20237;-75
2023/12/27 04:32:15;;;;;;;3.57;2.20;;;11.60;37.00;;;;;;10445652;28;20248;-75
2023/12/27 04:37:18;;;;;;;3.67;2.13;;;11.60;36.90;;;;;;10447906;28;20288;-75
2023/12/27 04:42:23;;;;;;;2.50;2.10;;;11.60;36.90;;;;;;10445797;28;20234;-75
2023/12/27 04:47:26;;;;;;;4.70;2.03;;;11.60;37.00;;;;;;10445533;28;20236;-76
2023/12/27 04:52:30;;;;;;;3.80;2.27;;;11.40;36.80;;;;;;10448884;28;20237;-75
2023/12/27 04:57:34;;;;;;;2.63;2.03;;;11.20;37.00;;;;;;10442641;28;20285;-75
2023/12/27 05:02:38;;;;;;;3.70;2.30;;;11.10;37.40;;;;;;10438174;28;20284;-75
2023/12/27 05:07:42;;;;;;;2.27;2.00;;;11.00;37.60;;;;;;10439140;28;20257;-75
2023/12/27 05:12:46;;;;;;;2.90;2.17;;;10.90;37.60;;;;;;10440113;28;20228;-75
2023/12/27 05:17:49;;;;;;;3.60;2.53;;;10.90;37.90;;;;;;10445674;28;20288;-75
2023/12/27 05:22:53;;;;;;;2.80;2.20;;;10.90;37.60;;;;;;10444939;28;20793;-75
2023/12/27 05:27:58;;;;;;;2.80;2.20;;;11.00;37.70;;;;;;10444283;28;20259;-75
2023/12/27 05:33:01;;;;;;;2.67;1.97;;;11.00;38.00;;;;;;10443924;28;20672;-75
2023/12/27 05:38:05;;;;;;;5.60;3.20;;;11.00;37.70;;;;;;10445026;28;20260;-75
2023/12/27 05:43:09;;;;;;;3.03;2.53;;;11.10;37.80;;;;;;10447697;28;20303;-75
2023/12/27 05:48:13;;;;;;;4.20;2.40;;;11.10;38.00;;;;;;10442364;28;20703;-75
2023/12/27 05:53:16;;;;;;;2.50;2.30;;;11.20;37.70;;;;;;10444840;28;20225;-75
2023/12/27 05:58:21;;;;;;;4.07;2.30;;;11.20;37.70;;;;;;10445132;28;20283;-75
2023/12/27 06:03:24;;;;;;;2.90;2.07;;;11.30;37.90;;;;;;10438876;28;20229;-75
2023/12/27 06:08:27;;;;;;;3.30;2.40;;;11.30;37.70;;;;;;10449915;28;20296;-75
2023/12/27 06:13:32;;;;;;;2.93;2.20;;;11.40;37.70;;;;;;10437999;28;20260;-75
2023/12/27 06:18:35;;;;;;;2.43;2.10;;;11.40;37.90;;;;;;10439181;28;20237;-75
2023/12/27 06:23:38;;;;;;;3.37;2.40;;;11.50;37.70;;;;;;10429999;28;20233;-75
2023/12/27 06:28:44;;;;;;;3.07;2.50;;;11.50;37.70;;;;;;10435791;28;20907;-76
2023/12/27 06:33:48;;;;;;;2.97;1.90;;;11.50;38.00;;;;;;10438311;28;20225;-75
2023/12/27 06:38:51;;;;;;;2.47;2.20;;;11.50;37.70;;;;;;10437762;28;20312;-75
2023/12/27 06:43:56;;;;;;;3.00;2.47;;;11.50;37.70;;;;;;10445144;28;20271;-75
2023/12/27 06:48:59;;;;;;;2.80;2.40;;;11.50;37.70;;;;;;10446823;28;20233;-75
2023/12/27 06:54:03;;;;;;;3.63;3.10;;;11.50;37.60;;;;;;10450490;28;20300;-75
2023/12/27 06:59:07;;;;;;;3.83;3.03;;;11.50;37.60;;;;;;10448402;28;20240;-76
2023/12/27 07:04:11;;;;;;;3.90;3.00;;;11.50;37.90;;;;;;10445964;28;20245;-75
2023/12/27 07:09:15;;;;;;;3.27;2.70;;;11.60;37.70;;;;;;10448643;28;20229;-75
2023/12/27 07:14:20;;;;;;;4.07;2.83;;;11.60;37.80;;;;;;10447741;28;20320;-75
2023/12/27 07:19:23;;;;;;;3.43;2.53;;;11.60;37.90;;;;;;10447352;28;20264;-76
2023/12/27 07:24:26;;;;;;;4.17;2.77;;;11.50;37.60;;;;;;10447254;28;20225;-75
2023/12/27 07:29:33;;;;;;;3.07;2.80;;;11.50;37.60;;;;;;10442974;28;20242;-75
2023/12/27 07:34:36;;;;;;;3.50;2.70;;;11.50;37.90;;;;;;10440451;28;20302;-75
2023/12/27 07:39:41;;;;;;;4.77;3.30;;;11.50;37.90;;;;;;10445623;28;20229;-75
2023/12/27 07:44:45;;;;;;;4.10;3.10;;;11.50;38.00;;;;;;10438880;28;20235;-76
2023/12/27 07:49:49;;;;;;;2.93;2.60;;;11.50;38.00;;;;;;10442563;28;20225;-76
2023/12/27 07:54:52;;;;;;;4.37;3.00;;;11.40;37.70;;;;;;10442757;28;20235;-75
2023/12/27 07:59:58;;;;;;;3.80;3.00;;;11.40;37.80;;;;;;10441942;28;20305;-75
2023/12/27 08:05:02;;;;;;;6.43;3.40;;;11.50;38.10;;;;;;10447350;28;20225;-75
2023/12/27 08:10:07;;;;;;;8.70;5.97;;;11.50;38.00;;;;;;10440832;28;20248;-75
2023/12/27 08:15:11;;;;;;;6.87;5.30;;;11.50;38.10;;;;;;10444283;28;20296;-75
2023/12/27 08:20:15;;;;;;;6.53;4.33;;;11.50;38.20;;;;;;10444159;28;20245;-75
2023/12/27 08:25:18;;;;;;;5.07;3.90;;;11.60;39.00;;;;;;10444324;28;20263;-75
2023/12/27 08:30:23;;;;;;;6.03;4.13;;;11.60;38.20;;;;;;10447103;28;20240;-75
2023/12/27 08:35:27;;;;;;;4.10;3.70;;;11.60;38.60;;;;;;10436624;28;20704;-75
2023/12/27 08:40:30;;;;;;;4.63;4.07;;;11.80;38.70;;;;;;10441142;28;20238;-76
2023/12/27 08:45:35;;;;;;;11.73;9.43;;;12.00;38.70;;;;;;10444179;28;20240;-75
2023/12/27 08:50:40;;;;;;;13.17;10.30;;;12.20;38.40;;;;;;10440871;28;20229;-75
2023/12/27 08:55:44;;;;;;;5.47;4.17;;;12.30;38.10;;;;;;10444435;28;20260;-75
2023/12/27 09:00:49;;;;;;;4.90;2.80;;;12.40;37.90;;;;;;10447525;28;20255;-75
2023/12/27 09:05:52;;;;;;;3.67;2.63;;;12.40;37.70;;;;;;10441574;28;20225;-75
2023/12/27 09:10:55;;;;;;;3.10;2.20;;;12.30;37.80;;;;;;10441709;28;20237;-75
2023/12/27 09:16:02;;;;;;;3.97;2.57;;;12.30;37.80;;;;;;10439585;28;20312;-75
2023/12/27 09:21:06;;;;;;;3.40;2.50;;;12.30;38.00;;;;;;10447395;28;20229;-75
2023/12/27 09:26:13;;;;;;;3.33;2.27;;;12.30;37.90;;;;;;10436323;28;20237;-75
2023/12/27 09:31:17;;;;;;;3.33;2.60;;;12.30;38.10;;;;;;10439648;28;20252;-75
2023/12/27 09:36:21;;;;;;;2.90;2.20;;;12.40;38.00;;;;;;10437379;28;20231;-75
2023/12/27 09:41:25;;;;;;;4.63;2.07;;;12.50;38.20;;;;;;10446555;28;20308;-75
2023/12/27 09:46:30;;;;;;;4.43;2.87;;;12.60;38.20;;;;;;10435320;28;20312;-73
2023/12/27 09:51:34;;;;;;;3.50;2.90;;;12.70;38.10;;;;;;10434336;28;20279;-76
2023/12/27 09:56:38;;;;;;;4.67;3.20;;;12.80;38.00;;;;;;10432129;28;20889;-76
2023/12/27 10:01:45;;;;;;;5.23;4.50;;;12.90;37.80;;;;;;10434694;28;20299;-75
2023/12/27 10:06:51;;;;;;;2.50;2.30;;;12.90;37.70;;;;;;10434749;28;20648;-75
2023/12/27 10:11:55;;;;;;;2.23;2.00;;;13.00;37.70;;;;;;10431278;28;20228;-75
2023/12/27 10:17:00;;;;;;;2.13;1.93;;;13.10;37.60;;;;;;10435905;28;20232;-75
2023/12/27 10:22:03;;;;;;;2.37;1.80;;;13.20;37.50;;;;;;10442495;28;20229;-75
2023/12/27 10:27:08;;;;;;;2.57;1.97;;;13.30;37.60;;;;;;10447208;28;20224;-75
2023/12/27 10:32:14;;;;;;;2.77;2.00;;;13.30;37.60;;;;;;10442530;28;20271;-75
2023/12/27 10:37:19;;;;;;;2.20;2.00;;;13.40;37.40;;;;;;10450234;28;20316;-75
2023/12/27 10:42:28;;;;;;;2.50;1.60;;;13.40;37.30;;;;;;10442927;28;20245;-75
2023/12/27 10:47:33;;;;;;;2.87;2.00;;;13.40;37.00;;;;;;10451469;28;20241;-75
2023/12/27 10:52:38;;;;;;;6.50;4.83;;;13.40;37.20;;;;;;10441063;28;20730;-75
2023/12/27 10:57:43;;;;;;;3.67;2.80;;;13.50;37.20;;;;;;10443179;28;20777;-75
2023/12/27 11:02:48;;;;;;;5.07;3.57;;;13.50;37.30;;;;;;10442073;28;20260;-75
2023/12/27 11:07:53;;;;;;;3.57;2.30;;;13.50;37.20;;;;;;10438750;28;20279;-75
2023/12/27 11:13:01;;;;;;;2.90;2.00;;;13.60;37.00;;;;;;10446381;28;21410;-75
2023/12/27 11:18:09;;;;;;;2.00;1.60;;;13.60;36.90;;;;;;10439386;28;20229;-75
2023/12/27 11:23:13;;;;;;;2.47;1.83;;;13.60;36.80;;;;;;10447480;28;20260;-75
2023/12/27 11:28:16;;;;;;;2.80;1.73;;;13.70;37.00;;;;;;10437786;28;20755;-75
2023/12/27 11:33:23;;;;;;;1.60;1.50;;;13.70;36.70;;;;;;10436860;28;20288;-75
2023/12/27 11:38:30;;;;;;;1.73;1.57;;;13.60;36.70;;;;;;10443586;28;20251;-76
2023/12/27 11:43:55;;;;;;;1.70;1.40;;;13.60;37.00;;;;;;10445662;28;20320;-75
2023/12/27 11:49:00;;;;;;;1.57;1.40;;;13.70;37.00;;;;;;10444174;28;20241;-75
2023/12/27 11:54:06;;;;;;;1.80;1.40;;;13.80;37.10;;;;;;10443791;28;20312;-75
2023/12/27 11:59:11;;;;;;;1.53;1.43;;;13.80;36.60;;;;;;10446948;28;20239;-75
2023/12/27 12:04:38;;;;;;;1.97;1.60;;;13.90;36.60;;;;;;10444734;28;20261;-75
2023/12/27 12:09:44;;;;;;;2.00;1.40;;;13.90;36.00;;;;;;10439178;28;20973;-75
2023/12/27 12:14:50;;;;;;;3.70;1.60;;;13.90;36.50;;;;;;10442572;28;20236;-75
2023/12/27 12:20:00;;;;;;;1.77;1.40;;;14.00;36.50;;;;;;10442987;28;20264;-75
2023/12/27 12:25:08;;;;;;;2.17;1.40;;;14.00;36.50;;;;;;10438296;28;20934;-75
2023/12/27 12:30:12;;;;;;;2.30;1.47;;;14.00;35.80;;;;;;10443591;28;20232;-75
2023/12/27 12:35:17;;;;;;;1.77;1.40;;;14.10;36.20;;;;;;10446984;28;20291;-75
2023/12/27 12:40:21;;;;;;;1.60;1.50;;;14.20;36.10;;;;;;10441997;28;20245;-75
2023/12/27 12:45:24;;;;;;;1.53;1.43;;;14.30;36.40;;;;;;10438380;28;20257;-75
2023/12/27 12:50:29;;;;;;;1.60;1.50;;;14.40;36.10;;;;;;10436634;28;20233;-75
2023/12/27 12:55:32;;;;;;;1.60;1.50;;;14.50;35.50;;;;;;10445150;28;20253;-75
2023/12/27 13:00:35;;;;;;;1.93;1.40;;;14.60;35.70;;;;;;10441311;28;20750;-75
2023/12/27 13:05:42;;;;;;;2.20;1.53;;;14.60;35.60;;;;;;10434800;28;20222;-75
2023/12/27 13:10:46;;;;;;;2.87;1.40;;;14.70;35.10;;;;;;10442258;28;20256;-75
2023/12/27 13:15:50;;;;;;;2.27;1.57;;;14.70;35.30;;;;;;10443906;28;20225;-75
2023/12/27 13:20:54;;;;;;;2.03;1.40;;;14.70;35.30;;;;;;10442348;28;20252;-75
2023/12/27 13:25:57;;;;;;;2.73;1.70;;;14.70;34.60;;;;;;10443102;28;20278;-75
2023/12/27 13:31:02;;;;;;;2.03;1.50;;;14.60;34.70;;;;;;10441237;28;20286;-75
2023/12/27 13:36:08;;;;;;;2.43;1.50;;;14.50;34.80;;;;;;10438975;28;20229;-75
2023/12/27 13:41:12;;;;;;;1.77;1.50;;;14.50;34.70;;;;;;10434853;28;20259;-75
2023/12/27 13:46:15;;;;;;;2.73;1.40;;;14.40;34.90;;;;;;10430594;28;20704;-75
2023/12/27 13:51:20;;;;;;;2.40;1.40;;;14.40;35.00;;;;;;10435133;28;20279;-75
2023/12/27 13:56:23;;;;;;;1.50;1.40;;;14.40;35.00;;;;;;10437256;28;20763;-75
2023/12/27 14:01:26;;;;;;;2.53;1.47;;;14.50;35.10;;;;;;10431430;28;20305;-76
2023/12/27 14:06:31;;;;;;;2.23;1.57;;;14.40;34.70;;;;;;10434355;28;20248;-75
2023/12/27 14:11:35;;;;;;;1.87;1.23;;;14.30;34.60;;;;;;10438622;28;20612;-76
2023/12/27 14:16:41;;;;;;;1.83;1.50;;;14.30;34.70;;;;;;10431798;28;20240;-75
2023/12/27 14:21:46;;;;;;;1.50;1.10;;;14.20;34.80;;;;;;10433552;28;20235;-75
2023/12/27 14:26:49;;;;;;;2.50;2.10;;;14.10;34.60;;;;;;10437989;28;20229;-75
2023/12/27 14:31:53;;;;;;;2.83;1.23;;;14.10;34.80;;;;;;10436474;28;20283;-75
2023/12/27 14:36:57;;;;;;;2.77;1.20;;;14.10;34.70;;;;;;10433180;28;20241;-76
2023/12/27 14:42:03;;;;;;;2.27;1.97;;;14.10;34.70;;;;;;10422976;28;20235;-76
2023/12/27 14:47:08;;;;;;;22.07;19.93;;;14.10;34.80;;;;;;10423680;28;20696;-76
2023/12/27 14:52:13;;;;;;;15.17;13.70;;;14.10;34.70;;;;;;10424919;28;20246;-76
2023/12/27 14:57:21;;;;;;;8.83;8.13;;;14.00;34.60;;;;;;10423743;28;20309;-75
2023/12/27 15:02:25;;;;;;;5.00;4.60;;;13.90;34.80;;;;;;10423781;28;20318;-76
2023/12/27 15:07:30;;;;;;;3.70;3.40;;;14.00;34.90;;;;;;10428932;28;20320;-76
2023/12/27 15:12:34;;;;;;;5.30;4.63;;;14.00;34.80;;;;;;10428300;28;20229;-76
2023/12/27 15:17:37;;;;;;;7.37;5.53;;;14.00;34.70;;;;;;10432901;28;20237;-76
2023/12/27 15:22:42;;;;;;;6.40;4.87;;;14.00;34.60;;;;;;10433757;28;20232;-75
2023/12/27 15:27:45;;;;;;;10.70;7.10;;;14.00;34.60;;;;;;10430027;28;20229;-76
2023/12/27 15:32:49;;;;;;;7.53;4.83;;;14.00;34.60;;;;;;10430203;28;20233;-76
2023/12/27 15:37:53;;;;;;;9.33;5.37;;;13.90;34.70;;;;;;10427861;28;20241;-76
2023/12/27 15:42:57;;;;;;;12.73;8.87;;;13.90;34.70;;;;;;10434121;28;20859;-76
2023/12/27 15:48:00;;;;;;;14.17;11.10;;;13.90;34.70;;;;;;10431719;28;20255;-76
2023/12/27 15:53:05;;;;;;;9.87;7.70;;;13.80;34.60;;;;;;10426094;28;20224;-76
2023/12/27 15:58:09;;;;;;;14.00;11.27;;;13.80;34.50;;;;;;10425305;28;20306;-76
2023/12/27 16:03:12;;;;;;;13.13;9.70;;;13.80;34.50;;;;;;10431974;28;20229;-76
2023/12/27 16:08:16;;;;;;;11.50;10.07;;;13.70;34.50;;;;;;10425751;28;20247;-76
2023/12/27 16:13:20;;;;;;;10.77;9.67;;;13.60;34.30;;;;;;10448849;28;20237;-74
2023/12/27 16:18:23;;;;;;;9.77;7.83;;;13.60;34.50;;;;;;10449075;28;20233;-74
2023/12/27 16:23:28;;;;;;;13.23;9.30;;;13.50;34.30;;;;;;10450038;28;20229;-74
2023/12/27 16:28:32;;;;;;;9.50;8.43;;;13.40;34.20;;;;;;10449439;28;20283;-74
2023/12/27 16:33:36;;;;;;;9.90;8.47;;;13.40;34.30;;;;;;10449272;28;20229;-74
2023/12/27 16:38:42;;;;;;;13.90;11.00;;;13.30;34.30;;;;;;10448954;28;20382;-74
2023/12/27 16:43:46;;;;;;;10.60;8.80;;;13.20;34.20;;;;;;10447238;28;20312;-74
2023/12/27 16:48:49;;;;;;;8.97;8.00;;;13.10;34.30;;;;;;10448546;28;20263;-74
2023/12/27 16:53:58;;;;;;;10.63;8.43;;;13.00;34.20;;;;;;10448521;28;20227;-74
2023/12/27 16:59:04;;;;;;;8.83;7.93;;;13.00;34.20;;;;;;10447871;28;20221;-74
2023/12/27 17:04:07;;;;;;;15.27;12.67;;;12.90;34.10;;;;;;10448078;28;20228;-74
2023/12/27 17:09:13;;;;;;;15.73;14.00;;;12.70;34.00;;;;;;10447833;28;20707;-74
2023/12/27 17:14:16;;;;;;;13.83;11.60;;;12.50;34.10;;;;;;10447773;28;20312;-74
2023/12/27 17:19:19;;;;;;;11.57;10.17;;;12.30;34.10;;;;;;10447556;28;20240;-73
2023/12/27 17:24:24;;;;;;;14.00;12.00;;;12.20;34.30;;;;;;10447458;28;20232;-74
2023/12/27 17:29:28;;;;;;;14.67;11.97;;;12.00;34.30;;;;;;10446837;28;20243;-74
2023/12/27 17:34:31;;;;;;;14.33;12.13;;;11.80;34.40;;;;;;10446975;28;20308;-74
2023/12/27 17:39:35;;;;;;;12.13;10.67;;;11.60;34.60;;;;;;10446490;28;20763;-74
2023/12/27 17:44:39;;;;;;;11.20;9.33;;;11.60;34.80;;;;;;10446639;28;20236;-74
2023/12/27 17:49:42;;;;;;;9.57;8.10;;;11.50;34.70;;;;;;10446411;28;20271;-74
2023/12/27 17:54:47;;;;;;;11.07;9.30;;;11.30;34.60;;;;;;10446720;28;20232;-74
2023/12/27 17:59:51;;;;;;;9.37;8.27;;;11.20;35.00;;;;;;10446553;28;20247;-74
2023/12/27 18:04:55;;;;;;;13.90;10.13;;;11.20;35.00;;;;;;10446286;28;20283;-74
2023/12/27 18:10:00;;;;;;;12.77;11.30;;;11.20;35.00;;;;;;10446490;28;20228;-74
2023/12/27 18:15:04;;;;;;;11.00;8.70;;;11.10;34.90;;;;;;10446114;28;20753;-74
2023/12/27 18:20:09;;;;;;;11.40;8.00;;;11.10;34.80;;;;;;10446281;28;20233;-74
2023/12/27 18:25:14;;;;;;;14.57;12.57;;;11.00;34.80;;;;;;10446253;28;20260;-74
2023/12/27 18:30:18;;;;;;;12.10;9.60;;;11.00;34.90;;;;;;10445523;28;20237;-74
2023/12/27 18:35:21;;;;;;;14.67;11.07;;;10.90;34.70;;;;;;10446097;28;20299;-74
2023/12/27 18:40:26;;;;;;;17.97;14.67;;;10.90;34.80;;;;;;10448040;28;20256;-74
2023/12/27 18:45:29;;;;;;;16.97;12.37;;;10.80;34.60;;;;;;10453496;28;20233;-74
2023/12/27 18:50:32;;;;;;;20.97;14.70;;;10.70;34.60;;;;;;10453433;28;20715;-74
2023/12/27 18:55:37;;;;;;;19.90;16.00;;;10.60;34.70;;;;;;10452988;28;20260;-74
2023/12/27 19:00:40;;;;;;;27.17;19.33;;;10.40;34.60;;;;;;10452837;28;20244;-74
2023/12/27 19:05:47;;;;;;;16.83;14.23;;;10.20;34.70;;;;;;10453125;28;20296;-74
2023/12/27 19:10:52;;;;;;;23.73;17.67;;;10.00;34.80;;;;;;10452488;28;20711;-74
2023/12/27 19:15:55;;;;;;;16.47;12.73;;;9.80;36.20;;;;;;10452117;28;21046;-74
2023/12/27 19:20:59;;;;;;;11.93;10.50;;;9.70;36.20;;;;;;10451781;28;20229;-74
2023/12/27 19:26:04;;;;;;;39.53;24.83;;;9.50;36.20;;;;;;10451925;28;20898;-74
2023/12/27 19:31:08;;;;;;;40.37;31.27;;;9.30;36.60;;;;;;10451947;28;20316;-74
2023/12/27 19:36:11;;;;;;;101.00;47.40;;;9.20;36.70;;;;;;10451544;28;20253;-73
2023/12/27 19:41:16;;;;;;;68.93;33.57;;;9.10;36.90;;;;;;10451651;28;20249;-74
2023/12/27 19:46:19;;;;;;;26.13;16.00;;;9.00;37.10;;;;;;10451444;28;20243;-74
2023/12/27 19:51:22;;;;;;;20.50;15.73;;;9.00;37.00;;;;;;10449886;28;20237;-74
2023/12/27 19:56:27;;;;;;;15.00;12.00;;;8.90;37.00;;;;;;10451110;28;20229;-74
2023/12/27 20:01:31;;;;;;;12.43;11.13;;;8.90;37.30;;;;;;10450970;28;20236;-74
2023/12/27 20:06:35;;;;;;;13.67;11.50;;;8.80;37.20;;;;;;10449941;28;20773;-74
2023/12/27 20:11:39;;;;;;;15.40;11.90;;;8.80;37.40;;;;;;10450094;28;20236;-74
2023/12/27 20:16:43;;;;;;;11.40;9.60;;;8.90;37.30;;;;;;10449979;28;20240;-74
2023/12/27 20:21:46;;;;;;;15.03;13.50;;;8.90;37.10;;;;;;10449797;28;20282;-74
2023/12/27 20:26:56;;;;;;;15.40;13.80;;;8.80;37.00;;;;;;10449306;28;20306;-74
2023/12/27 20:32:00;;;;;;;14.97;12.93;;;8.80;37.20;;;;;;10449384;28;20236;-74
2023/12/27 20:37:03;;;;;;;15.03;12.20;;;8.70;36.80;;;;;;10449118;28;20661;-74
2023/12/27 20:42:07;;;;;;;13.23;11.43;;;8.60;37.00;;;;;;10448972;28;20256;-74
2023/12/27 20:47:11;;;;;;;13.83;10.70;;;8.40;37.30;;;;;;10449034;28;20245;-74
2023/12/27 20:52:14;;;;;;;9.63;8.70;;;8.20;37.20;;;;;;10448625;28;20830;-73
2023/12/27 20:57:18;;;;;;;9.63;8.47;;;8.00;37.50;;;;;;10448330;28;20282;-73
2023/12/27 21:02:22;;;;;;;10.73;7.30;;;7.90;38.00;;;;;;10447880;28;20880;-74
2023/12/27 21:07:27;;;;;;;8.77;7.97;;;7.80;37.80;;;;;;10447824;28;20291;-73
2023/12/27 21:12:37;;;;;;;9.07;8.03;;;7.80;38.10;;;;;;10447858;28;20235;-73
2023/12/27 21:17:41;;;;;;;8.07;7.27;;;7.80;38.30;;;;;;10447631;28;20236;-74
2023/12/27 21:22:44;;;;;;;7.57;6.67;;;8.00;38.10;;;;;;10447375;28;20232;-73
2023/12/27 21:27:49;;;;;;;8.47;7.23;;;8.00;37.80;;;;;;10446978;28;20294;-73
2023/12/27 21:32:52;;;;;;;8.67;7.77;;;8.10;37.80;;;;;;10447008;28;20761;-74
2023/12/27 21:37:56;;;;;;;7.13;6.43;;;8.20;37.40;;;;;;10447075;28;20233;-73
2023/12/27 21:43:01;;;;;;;8.60;7.80;;;8.20;37.30;;;;;;10446912;28;20256;-74
2023/12/27 21:48:05;;;;;;;9.13;7.90;;;8.20;37.40;;;;;;10446502;28;20270;-73
2023/12/27 21:53:08;;;;;;;10.17;8.77;;;8.20;37.40;;;;;;10446451;28;20236;-73
2023/12/27 21:58:14;;;;;;;8.83;7.97;;;8.20;37.20;;;;;;10446638;28;20243;-74
2023/12/27 22:03:19;;;;;;;10.47;9.50;;;8.20;37.30;;;;;;10446299;28;20255;-73
2023/12/27 22:08:22;;;;;;;10.73;9.63;;;8.20;37.10;;;;;;10446479;28;20743;-74
2023/12/27 22:13:27;;;;;;;12.10;10.90;;;8.20;36.80;;;;;;10446105;28;20258;-74
2023/12/27 22:18:30;;;;;;;11.30;10.20;;;8.10;36.80;;;;;;10454025;28;20228;-74
2023/12/27 22:23:34;;;;;;;10.77;9.67;;;7.90;36.90;;;;;;10454282;28;20220;-73
2023/12/27 22:28:38;;;;;;;10.07;9.07;;;7.80;37.10;;;;;;10453934;28;20660;-73
2023/12/27 22:33:41;;;;;;;9.87;8.87;;;7.60;37.00;;;;;;10453983;28;20249;-73
2023/12/27 22:38:45;;;;;;;8.10;7.40;;;7.50;37.10;;;;;;10453589;28;20237;-73
2023/12/27 22:43:50;;;;;;;7.87;7.07;;;7.40;37.30;;;;;;10453641;28;20225;-73
2023/12/27 22:48:53;;;;;;;8.03;6.60;;;7.30;37.60;;;;;;10453535;28;20298;-74
2023/12/27 22:53:56;;;;;;;7.73;6.80;;;7.20;37.50;;;;;;10452914;28;20316;-73
2023/12/27 22:59:01;;;;;;;7.30;6.60;;;7.10;37.90;;;;;;10453103;28;20229;-73
2023/12/27 23:04:04;;;;;;;6.63;5.93;;;7.00;38.30;;;;;;10452672;28;20231;-73
2023/12/27 23:09:08;;;;;;;7.77;7.00;;;7.10;38.00;;;;;;10452517;28;20256;-74
2023/12/27 23:14:13;;;;;;;7.73;6.87;;;7.10;37.80;;;;;;10452662;28;20629;-74
2023/12/27 23:19:16;;;;;;;7.27;6.50;;;7.10;37.70;;;;;;10452187;28;20249;-74
2023/12/27 23:24:19;;;;;;;7.20;6.33;;;7.10;37.60;;;;;;10452272;28;20283;-74
2023/12/27 23:29:24;;;;;;;7.10;6.10;;;7.10;37.60;;;;;;10451701;28;20233;-74
2023/12/27 23:34:27;;;;;;;7.83;6.80;;;7.00;37.60;;;;;;10451701;28;20233;-73
2023/12/27 23:39:31;;;;;;;6.90;5.90;;;6.90;37.90;;;;;;10452037;28;20303;-74
2023/12/27 23:44:35;;;;;;;8.17;6.47;;;6.90;37.90;;;;;;10452084;28;20256;-74
2023/12/27 23:49:38;;;;;;;7.00;6.10;;;6.90;37.90;;;;;;10451866;28;20233;-74
2023/12/27 23:54:44;;;;;;;6.73;5.50;;;6.90;37.40;;;;;;10451534;28;20240;-74
2023/12/27 23:59:49;;;;;;;5.87;5.20;;;6.80;37.50;;;;;;10451304;28;20253;-74
